Terminal Aerodrome Forecast
Issued by NWS Charleston, WV

Current Version | Previous Version | Graphics & Text | Print | Product List | Glossary On
Versions: 1 2 3 4 5 6 7 8 9 10 11 12 13 14 15 16 17 18 19 20 21 22 23 24 25 26 27 28 29
000
FTUS41 KRLX 220800 AAA
TAFEKN
TAF AMD
KEKN 220803Z 2208/2306 00000KT 4SM BR BKN003
      TEMPO 2208/2212 3/4SM BR BKN002
     FM221230 VRB03KT 4SM BR FEW002 SCT045
     FM221300 00000KT P6SM SCT030
     FM221500 VRB03KT P6SM SCT040
     FM221800 VRB03KT P6SM VCTS BKN045CB
     FM222300 VRB03KT P6SM SCT050
     FM230500 VRB03KT 4SM BR SCT001=

USA.gov is the U.S. government's official web portal to all federal, state and local government web resources and services.